CPA580 VHHH-RJCC
Flight info
| Callsign | CPA580 |
|---|---|
| Flight time | 3h 59m |
| Altitude | 37000 |
| Route | DALOL V631 ENVAR M750 MOMPA Y451 HKC Y45 MARCO Y141 SAMON Y14 GOLDO Y19 MRE Y13 MEKAB Y137 NONUT Y11 NAVER |
| Aircraft | B77W/H-SDE1E2E3FGHIJ2J3J4J5M1RWXY/LB1D1 |
Departure
| Time | 2026-05-08 18:59 |
|---|---|
| Airport | Hong Kong International Airport (VHHH) |
Arrival
| Time | 2026-05-08 22:58 |
|---|---|
| Airport | New Chitose Airport (RJCC) |
| Time | Latitude | Longitude | Altitude | Speed | Heading |
|---|---|---|---|---|---|
| 2026-05-08 18:38 | 22.31413 | 113.92860 | 42 ft | 0 kts | 161° |
| 2026-05-08 18:39 | 22.31414 | 113.92859 | 42 ft | 2 kts | 161° |
| 2026-05-08 18:39 | 22.31439 | 113.92850 | 40 ft | 4 kts | 161° |
| 2026-05-08 18:39 | 22.31465 | 113.92840 | 40 ft | 3 kts | 160° |
| 2026-05-08 18:40 | 22.31487 | 113.92834 | 37 ft | 4 kts | 187° |
| 2026-05-08 18:40 | 22.31502 | 113.92840 | 38 ft | 4 kts | 231° |
| 2026-05-08 18:40 | 22.31511 | 113.92858 | 36 ft | 2 kts | 251° |
| 2026-05-08 18:40 | 22.31518 | 113.92879 | 40 ft | 0 kts | 251° |
| 2026-05-08 18:43 | 22.31518 | 113.92877 | 39 ft | 0 kts | 251° |
| 2026-05-08 18:43 | 22.31511 | 113.92855 | 36 ft | 9 kts | 251° |
| 2026-05-08 18:44 | 22.31500 | 113.92759 | 42 ft | 14 kts | 286° |
| 2026-05-08 18:44 | 22.31537 | 113.92663 | 42 ft | 14 kts | 295° |
| 2026-05-08 18:44 | 22.31580 | 113.92569 | 42 ft | 14 kts | 296° |
| 2026-05-08 18:44 | 22.31634 | 113.92484 | 42 ft | 14 kts | 334° |
| 2026-05-08 18:45 | 22.31679 | 113.92494 | 42 ft | 0 kts | 46° |
| 2026-05-08 18:45 | 22.31680 | 113.92496 | 42 ft | 2 kts | 47° |
| 2026-05-08 18:45 | 22.31704 | 113.92547 | 42 ft | 14 kts | 71° |
| 2026-05-08 18:45 | 22.31742 | 113.92665 | 42 ft | 17 kts | 71° |
| 2026-05-08 18:46 | 22.31785 | 113.92788 | 42 ft | 17 kts | 58° |
| 2026-05-08 18:46 | 22.31886 | 113.92798 | 42 ft | 11 kts | 339° |
| 2026-05-08 18:46 | 22.31919 | 113.92785 | 41 ft | 4 kts | 341° |
| 2026-05-08 18:46 | 22.31921 | 113.92784 | 41 ft | 0 kts | 341° |
| 2026-05-08 18:47 | 22.31924 | 113.92783 | 41 ft | 0 kts | 341° |
| 2026-05-08 18:48 | 22.31956 | 113.92771 | 41 ft | 10 kts | 341° |
| 2026-05-08 18:48 | 22.32043 | 113.92738 | 40 ft | 16 kts | 341° |
| 2026-05-08 18:48 | 22.32159 | 113.92695 | 41 ft | 19 kts | 341° |
| 2026-05-08 18:49 | 22.32261 | 113.92642 | 42 ft | 15 kts | 302° |
| 2026-05-08 18:49 | 22.32248 | 113.92522 | 42 ft | 18 kts | 258° |
| 2026-05-08 18:49 | 22.32296 | 113.92449 | 42 ft | 13 kts | 338° |
| 2026-05-08 18:49 | 22.32393 | 113.92412 | 42 ft | 17 kts | 341° |
| 2026-05-08 18:50 | 22.32518 | 113.92365 | 42 ft | 21 kts | 341° |
| 2026-05-08 18:50 | 22.32668 | 113.92309 | 42 ft | 25 kts | 341° |
| 2026-05-08 18:50 | 22.32835 | 113.92246 | 42 ft | 26 kts | 341° |
| 2026-05-08 18:50 | 22.33013 | 113.92179 | 41 ft | 29 kts | 341° |
| 2026-05-08 18:51 | 22.33107 | 113.92144 | 42 ft | 1 kts | 341° |
| 2026-05-08 18:51 | 22.33128 | 113.92130 | 42 ft | 5 kts | 313° |
| 2026-05-08 18:51 | 22.33131 | 113.92081 | 42 ft | 9 kts | 265° |
| 2026-05-08 18:51 | 22.33109 | 113.92004 | 42 ft | 12 kts | 251° |
| 2026-05-08 18:52 | 22.33077 | 113.91906 | 42 ft | 16 kts | 250° |
| 2026-05-08 18:52 | 22.33050 | 113.91824 | 42 ft | 19 kts | 250° |
| 2026-05-08 18:52 | 22.32983 | 113.91617 | 42 ft | 24 kts | 251° |
| 2026-05-08 18:52 | 22.32944 | 113.91497 | 42 ft | 27 kts | 251° |
| 2026-05-08 18:53 | 22.32853 | 113.91217 | 42 ft | 32 kts | 251° |
| 2026-05-08 18:53 | 22.32803 | 113.91061 | 42 ft | 34 kts | 251° |
| 2026-05-08 18:53 | 22.32730 | 113.90835 | 42 ft | 20 kts | 251° |
| 2026-05-08 18:53 | 22.32662 | 113.90621 | 42 ft | 25 kts | 251° |
| 2026-05-08 18:54 | 22.32620 | 113.90493 | 42 ft | 28 kts | 249° |
| 2026-05-08 18:54 | 22.32558 | 113.90300 | 42 ft | 26 kts | 250° |
| 2026-05-08 18:54 | 22.32503 | 113.90132 | 42 ft | 20 kts | 251° |
| 2026-05-08 18:54 | 22.32459 | 113.89996 | 42 ft | 21 kts | 251° |
| 2026-05-08 18:55 | 22.32346 | 113.89644 | 41 ft | 29 kts | 251° |
| 2026-05-08 18:55 | 22.32272 | 113.89417 | 41 ft | 33 kts | 250° |
| 2026-05-08 18:55 | 22.32197 | 113.89179 | 42 ft | 35 kts | 249° |
| 2026-05-08 18:56 | 22.32112 | 113.88923 | 42 ft | 38 kts | 251° |
| 2026-05-08 18:56 | 22.32023 | 113.88646 | 42 ft | 38 kts | 250° |
| 2026-05-08 18:56 | 22.31978 | 113.88505 | 42 ft | 21 kts | 251° |
| 2026-05-08 18:56 | 22.31926 | 113.88345 | 42 ft | 25 kts | 250° |
| 2026-05-08 18:57 | 22.31886 | 113.88216 | 42 ft | 15 kts | 261° |
| 2026-05-08 18:57 | 22.31953 | 113.88137 | 42 ft | 17 kts | 338° |
| 2026-05-08 18:57 | 22.32075 | 113.88095 | 43 ft | 20 kts | 354° |
| 2026-05-08 18:57 | 22.32144 | 113.88172 | 43 ft | 15 kts | 71° |
| 2026-05-08 18:58 | 22.32191 | 113.88320 | 45 ft | 38 kts | 71° |
| 2026-05-08 18:58 | 22.32364 | 113.88852 | 43 ft | 112 kts | 70° |
| 2026-05-08 18:58 | 22.32691 | 113.89865 | 43 ft | 166 kts | 71° |
| 2026-05-08 18:58 | 22.33080 | 113.91138 | 402 ft | 180 kts | 72° |
| 2026-05-08 18:59 | 22.33496 | 113.92428 | 1061 ft | 183 kts | 72° |
| 2026-05-08 18:59 | 22.33933 | 113.93742 | 1727 ft | 188 kts | 71° |
| 2026-05-08 18:59 | 22.34387 | 113.95125 | 2136 ft | 207 kts | 72° |
| 2026-05-08 18:59 | 22.34731 | 113.96736 | 2285 ft | 234 kts | 91° |
| 2026-05-08 19:00 | 22.34382 | 113.98482 | 2764 ft | 246 kts | 118° |
| 2026-05-08 19:00 | 22.33393 | 114.00032 | 3379 ft | 255 kts | 126° |
| 2026-05-08 19:00 | 22.32318 | 114.01580 | 4220 ft | 256 kts | 127° |
| 2026-05-08 19:00 | 22.31234 | 114.03130 | 5029 ft | 263 kts | 127° |
| 2026-05-08 19:01 | 22.30108 | 114.04743 | 5736 ft | 271 kts | 127° |
| 2026-05-08 19:01 | 22.28971 | 114.06372 | 6456 ft | 279 kts | 128° |
| 2026-05-08 19:01 | 22.27794 | 114.08060 | 7187 ft | 283 kts | 128° |
| 2026-05-08 19:01 | 22.26605 | 114.09768 | 7962 ft | 287 kts | 127° |
| 2026-05-08 19:02 | 22.25397 | 114.11506 | 8686 ft | 292 kts | 127° |
| 2026-05-08 19:02 | 22.24168 | 114.13273 | 9416 ft | 297 kts | 127° |
| 2026-05-08 19:02 | 22.22919 | 114.15072 | 10133 ft | 301 kts | 128° |
| 2026-05-08 19:02 | 22.21636 | 114.16918 | 10572 ft | 317 kts | 128° |
| 2026-05-08 19:03 | 22.20254 | 114.18907 | 10743 ft | 344 kts | 128° |
| 2026-05-08 19:03 | 22.18763 | 114.21052 | 10929 ft | 369 kts | 128° |
| 2026-05-08 19:03 | 22.17184 | 114.23325 | 11355 ft | 383 kts | 128° |
| 2026-05-08 19:03 | 22.15575 | 114.25642 | 12179 ft | 388 kts | 128° |
| 2026-05-08 19:04 | 22.13967 | 114.27957 | 13050 ft | 392 kts | 128° |
| 2026-05-08 19:04 | 22.12317 | 114.30333 | 13920 ft | 396 kts | 128° |
| 2026-05-08 19:04 | 22.10661 | 114.32715 | 14714 ft | 399 kts | 128° |
| 2026-05-08 19:04 | 22.08986 | 114.35122 | 15545 ft | 401 kts | 128° |
| 2026-05-08 19:05 | 22.07297 | 114.37549 | 16174 ft | 410 kts | 128° |
| 2026-05-08 19:05 | 22.05581 | 114.40013 | 17055 ft | 411 kts | 129° |
| 2026-05-08 19:05 | 22.03836 | 114.42516 | 17595 ft | 421 kts | 129° |
| 2026-05-08 19:05 | 22.02060 | 114.45061 | 18235 ft | 429 kts | 129° |
| 2026-05-08 19:06 | 22.00248 | 114.47660 | 18741 ft | 436 kts | 128° |
| 2026-05-08 19:06 | 21.98415 | 114.50288 | 19333 ft | 440 kts | 128° |
| 2026-05-08 19:06 | 21.96567 | 114.52937 | 20058 ft | 441 kts | 128° |
| 2026-05-08 19:06 | 21.94716 | 114.55588 | 20701 ft | 445 kts | 128° |
| 2026-05-08 19:07 | 21.92887 | 114.58207 | 21533 ft | 443 kts | 127° |
| 2026-05-08 19:07 | 21.91012 | 114.60889 | 21923 ft | 454 kts | 127° |
| 2026-05-08 19:07 | 21.89117 | 114.63600 | 22692 ft | 454 kts | 127° |
| 2026-05-08 19:07 | 21.87195 | 114.66346 | 23093 ft | 463 kts | 127° |
| 2026-05-08 19:08 | 21.85263 | 114.69105 | 23816 ft | 463 kts | 127° |
| 2026-05-08 19:08 | 21.83309 | 114.71894 | 24275 ft | 466 kts | 127° |
| 2026-05-08 19:08 | 21.81361 | 114.74676 | 24870 ft | 468 kts | 127° |
| 2026-05-08 19:08 | 21.79374 | 114.77510 | 25111 ft | 478 kts | 127° |
| 2026-05-08 19:09 | 21.77375 | 114.80376 | 25604 ft | 479 kts | 125° |
| 2026-05-08 19:09 | 21.75744 | 114.83492 | 26276 ft | 477 kts | 113° |
| 2026-05-08 19:09 | 21.74675 | 114.86899 | 26500 ft | 488 kts | 102° |
| 2026-05-08 19:09 | 21.74210 | 114.90538 | 26879 ft | 490 kts | 91° |
| 2026-05-08 19:10 | 21.74215 | 114.94219 | 27278 ft | 494 kts | 88° |
| 2026-05-08 19:10 | 21.74418 | 114.97921 | 27629 ft | 499 kts | 84° |
| 2026-05-08 19:10 | 21.74779 | 115.01650 | 27987 ft | 503 kts | 82° |
| 2026-05-08 19:10 | 21.75208 | 115.05399 | 28396 ft | 507 kts | 82° |
| 2026-05-08 19:11 | 21.75659 | 115.09180 | 28750 ft | 511 kts | 82° |
| 2026-05-08 19:11 | 21.76102 | 115.12947 | 29130 ft | 515 kts | 82° |
| 2026-05-08 19:11 | 21.76538 | 115.16798 | 29409 ft | 520 kts | 82° |
| 2026-05-08 19:11 | 21.76960 | 115.20678 | 29681 ft | 525 kts | 82° |
| 2026-05-08 19:12 | 21.77374 | 115.24596 | 29971 ft | 528 kts | 83° |
| 2026-05-08 19:12 | 21.77781 | 115.28528 | 30290 ft | 530 kts | 83° |
| 2026-05-08 19:12 | 21.78189 | 115.32473 | 30643 ft | 530 kts | 83° |
| 2026-05-08 19:12 | 21.78596 | 115.36413 | 31028 ft | 529 kts | 82° |
| 2026-05-08 19:13 | 21.79002 | 115.40345 | 31427 ft | 528 kts | 82° |
| 2026-05-08 19:13 | 21.79406 | 115.44272 | 31829 ft | 528 kts | 82° |
| 2026-05-08 19:13 | 21.79808 | 115.48200 | 32226 ft | 527 kts | 82° |
| 2026-05-08 19:13 | 21.80209 | 115.52115 | 32611 ft | 527 kts | 82° |
| 2026-05-08 19:14 | 21.80608 | 115.56034 | 32996 ft | 527 kts | 82° |
| 2026-05-08 19:14 | 21.81007 | 115.59958 | 33380 ft | 526 kts | 82° |
| 2026-05-08 19:14 | 21.81401 | 115.63835 | 33763 ft | 526 kts | 81° |
| 2026-05-08 19:14 | 21.81797 | 115.67750 | 34130 ft | 526 kts | 81° |
| 2026-05-08 19:15 | 21.82191 | 115.71657 | 34469 ft | 525 kts | 81° |
| 2026-05-08 19:15 | 21.82584 | 115.75558 | 34834 ft | 523 kts | 81° |
| 2026-05-08 19:15 | 21.82974 | 115.79440 | 35212 ft | 521 kts | 81° |
| 2026-05-08 19:15 | 21.83363 | 115.83324 | 35574 ft | 520 kts | 81° |
| 2026-05-08 19:16 | 21.83750 | 115.87194 | 35907 ft | 519 kts | 81° |
| 2026-05-08 19:16 | 21.84136 | 115.91056 | 36233 ft | 518 kts | 81° |
| 2026-05-08 19:16 | 21.84516 | 115.94873 | 36547 ft | 517 kts | 81° |
| 2026-05-08 19:16 | 21.84897 | 115.98708 | 36856 ft | 516 kts | 81° |
| 2026-05-08 19:17 | 21.85281 | 116.02578 | 36944 ft | 520 kts | 81° |
| 2026-05-08 19:17 | 21.86049 | 116.10341 | 36989 ft | 521 kts | 81° |
| 2026-05-08 19:18 | 21.86804 | 116.18048 | 36988 ft | 514 kts | 81° |
| 2026-05-08 19:18 | 21.87550 | 116.25689 | 36989 ft | 513 kts | 81° |
| 2026-05-08 19:19 | 21.88296 | 116.33340 | 36998 ft | 513 kts | 81° |
| 2026-05-08 19:19 | 21.89036 | 116.40980 | 36995 ft | 513 kts | 81° |
| 2026-05-08 19:20 | 21.89775 | 116.48639 | 36999 ft | 514 kts | 81° |
| 2026-05-08 19:20 | 21.90506 | 116.56268 | 36993 ft | 516 kts | 81° |
| 2026-05-08 19:21 | 21.91240 | 116.63961 | 36995 ft | 517 kts | 81° |
| 2026-05-08 19:21 | 21.91971 | 116.71664 | 36996 ft | 517 kts | 81° |
| 2026-05-08 19:22 | 21.92701 | 116.79393 | 36996 ft | 518 kts | 81° |
| 2026-05-08 19:22 | 21.93424 | 116.87082 | 36992 ft | 518 kts | 81° |
| 2026-05-08 19:23 | 21.94146 | 116.94803 | 36993 ft | 518 kts | 81° |
| 2026-05-08 19:23 | 21.94864 | 117.02523 | 36994 ft | 518 kts | 81° |
| 2026-05-08 19:24 | 21.95579 | 117.10250 | 37001 ft | 517 kts | 81° |
| 2026-05-08 19:24 | 21.96289 | 117.17955 | 37000 ft | 517 kts | 81° |
| 2026-05-08 19:25 | 21.96995 | 117.25663 | 36989 ft | 516 kts | 81° |
| 2026-05-08 19:25 | 21.97697 | 117.33366 | 36986 ft | 516 kts | 81° |
| 2026-05-08 19:26 | 21.98396 | 117.41069 | 36995 ft | 516 kts | 81° |
| 2026-05-08 19:26 | 21.99558 | 117.48597 | 36987 ft | 509 kts | 69° |
| 2026-05-08 19:27 | 22.02230 | 117.55596 | 36979 ft | 501 kts | 55° |
| 2026-05-08 19:27 | 22.05869 | 117.61979 | 36983 ft | 500 kts | 53° |
| 2026-05-08 19:28 | 22.09561 | 117.68333 | 36986 ft | 501 kts | 54° |
| 2026-05-08 19:28 | 22.13226 | 117.74764 | 37003 ft | 502 kts | 54° |
| 2026-05-08 19:29 | 22.16860 | 117.81211 | 37003 ft | 503 kts | 54° |
| 2026-05-08 19:29 | 22.20483 | 117.87648 | 36990 ft | 504 kts | 54° |
| 2026-05-08 19:30 | 22.24133 | 117.94131 | 36996 ft | 504 kts | 54° |
| 2026-05-08 19:30 | 22.27778 | 118.00611 | 36996 ft | 504 kts | 54° |
| 2026-05-08 19:31 | 22.31502 | 118.07018 | 36996 ft | 504 kts | 53° |
| 2026-05-08 19:31 | 22.35274 | 118.13411 | 36993 ft | 504 kts | 53° |
| 2026-05-08 19:32 | 22.39002 | 118.19784 | 36995 ft | 504 kts | 53° |
| 2026-05-08 19:32 | 22.42713 | 118.26226 | 36992 ft | 505 kts | 54° |
| 2026-05-08 19:33 | 22.46374 | 118.32723 | 36996 ft | 505 kts | 54° |
| 2026-05-08 19:33 | 22.50029 | 118.39206 | 36989 ft | 505 kts | 54° |
| 2026-05-08 19:34 | 22.53696 | 118.45697 | 36994 ft | 505 kts | 54° |
| 2026-05-08 19:34 | 22.57341 | 118.52154 | 36995 ft | 505 kts | 54° |
| 2026-05-08 19:35 | 22.61031 | 118.58631 | 36990 ft | 506 kts | 54° |
| 2026-05-08 19:35 | 22.64735 | 118.65110 | 36994 ft | 506 kts | 54° |
| 2026-05-08 19:36 | 22.68432 | 118.71593 | 36993 ft | 506 kts | 54° |
| 2026-05-08 19:36 | 22.72123 | 118.78082 | 36992 ft | 507 kts | 54° |
| 2026-05-08 19:37 | 22.75821 | 118.84595 | 36992 ft | 507 kts | 54° |
| 2026-05-08 19:37 | 22.79518 | 118.91114 | 36988 ft | 507 kts | 54° |
| 2026-05-08 19:38 | 22.83213 | 118.97636 | 36990 ft | 508 kts | 54° |
| 2026-05-08 19:38 | 22.86288 | 119.03070 | 36989 ft | 508 kts | 54° |
| 2026-05-08 19:39 | 22.89980 | 119.09602 | 36989 ft | 508 kts | 54° |
| 2026-05-08 19:39 | 22.93673 | 119.16144 | 36988 ft | 508 kts | 54° |
| 2026-05-08 19:40 | 22.97369 | 119.22700 | 36987 ft | 509 kts | 54° |
| 2026-05-08 19:40 | 23.01032 | 119.29206 | 36988 ft | 509 kts | 54° |
| 2026-05-08 19:41 | 23.04725 | 119.35774 | 36991 ft | 509 kts | 54° |
| 2026-05-08 19:41 | 23.08417 | 119.42349 | 36989 ft | 510 kts | 54° |
| 2026-05-08 19:42 | 23.12104 | 119.48924 | 36990 ft | 510 kts | 54° |
| 2026-05-08 19:42 | 23.15797 | 119.55517 | 36988 ft | 510 kts | 54° |
| 2026-05-08 19:43 | 23.19482 | 119.62104 | 36992 ft | 510 kts | 54° |
| 2026-05-08 19:43 | 23.23164 | 119.68702 | 36993 ft | 510 kts | 54° |
| 2026-05-08 19:44 | 23.26818 | 119.75261 | 36994 ft | 510 kts | 54° |
| 2026-05-08 19:44 | 23.30496 | 119.81871 | 36993 ft | 511 kts | 54° |
| 2026-05-08 19:45 | 23.34180 | 119.88489 | 36995 ft | 510 kts | 53° |
| 2026-05-08 19:45 | 23.38420 | 119.94596 | 36992 ft | 503 kts | 42° |
| 2026-05-08 19:46 | 23.43410 | 119.99863 | 36988 ft | 498 kts | 37° |
| 2026-05-08 19:46 | 23.51008 | 120.07562 | 36994 ft | 500 kts | 38° |
| 2026-05-08 19:47 | 23.56069 | 120.12766 | 36988 ft | 500 kts | 38° |
| 2026-05-08 19:47 | 23.61131 | 120.18003 | 36994 ft | 501 kts | 38° |
| 2026-05-08 19:48 | 23.66190 | 120.23244 | 36995 ft | 501 kts | 38° |
| 2026-05-08 19:48 | 23.71219 | 120.28456 | 36999 ft | 502 kts | 38° |
| 2026-05-08 19:49 | 23.76290 | 120.33716 | 36998 ft | 502 kts | 38° |
| 2026-05-08 19:49 | 23.81352 | 120.38973 | 36994 ft | 502 kts | 38° |
| 2026-05-08 19:50 | 23.86385 | 120.44207 | 36996 ft | 502 kts | 38° |
| 2026-05-08 19:50 | 23.91448 | 120.49477 | 37001 ft | 502 kts | 38° |
| 2026-05-08 19:51 | 23.96486 | 120.54773 | 37008 ft | 502 kts | 38° |
| 2026-05-08 19:51 | 24.01513 | 120.60086 | 37027 ft | 503 kts | 38° |
| 2026-05-08 19:52 | 24.06542 | 120.65404 | 37024 ft | 503 kts | 38° |
| 2026-05-08 19:52 | 24.11574 | 120.70726 | 37026 ft | 503 kts | 38° |
| 2026-05-08 19:53 | 24.16611 | 120.76057 | 37035 ft | 503 kts | 38° |
| 2026-05-08 19:53 | 24.21651 | 120.81397 | 37027 ft | 504 kts | 38° |
| 2026-05-08 19:54 | 24.26658 | 120.86711 | 37032 ft | 504 kts | 38° |
| 2026-05-08 19:54 | 24.31699 | 120.92066 | 37036 ft | 504 kts | 38° |
| 2026-05-08 19:55 | 24.36738 | 120.97428 | 37047 ft | 505 kts | 38° |
| 2026-05-08 19:55 | 24.41751 | 121.02850 | 37058 ft | 507 kts | 42° |
| 2026-05-08 19:56 | 24.46287 | 121.08876 | 37052 ft | 514 kts | 46° |
| 2026-05-08 19:56 | 24.50684 | 121.15049 | 37045 ft | 511 kts | 46° |
| 2026-05-08 19:57 | 24.55041 | 121.21146 | 37050 ft | 509 kts | 46° |
| 2026-05-08 19:57 | 24.59443 | 121.27236 | 37057 ft | 509 kts | 46° |
| 2026-05-08 19:58 | 24.63863 | 121.33329 | 37058 ft | 509 kts | 46° |
| 2026-05-08 19:58 | 24.68279 | 121.39435 | 37070 ft | 510 kts | 46° |
| 2026-05-08 19:59 | 24.72698 | 121.45558 | 37058 ft | 511 kts | 46° |
| 2026-05-08 19:59 | 24.77094 | 121.51661 | 37054 ft | 510 kts | 46° |
| 2026-05-08 20:00 | 24.81506 | 121.57792 | 37068 ft | 511 kts | 46° |
| 2026-05-08 20:00 | 24.85932 | 121.63948 | 37066 ft | 514 kts | 46° |
| 2026-05-08 20:01 | 24.90374 | 121.70129 | 37063 ft | 514 kts | 45° |
| 2026-05-08 20:01 | 24.95010 | 121.76116 | 37058 ft | 513 kts | 43° |
| 2026-05-08 20:02 | 24.99735 | 121.82017 | 37050 ft | 513 kts | 43° |
| 2026-05-08 20:02 | 25.04402 | 121.87947 | 37058 ft | 514 kts | 43° |
| 2026-05-08 20:03 | 25.09079 | 121.93944 | 37071 ft | 514 kts | 43° |
| 2026-05-08 20:03 | 25.13750 | 121.99932 | 37082 ft | 514 kts | 43° |
| 2026-05-08 20:04 | 25.18378 | 122.05908 | 37075 ft | 515 kts | 44° |
| 2026-05-08 20:04 | 25.23030 | 122.11945 | 37074 ft | 515 kts | 44° |
| 2026-05-08 20:05 | 25.27673 | 122.17973 | 37077 ft | 515 kts | 43° |
| 2026-05-08 20:05 | 25.32319 | 122.24009 | 37074 ft | 515 kts | 43° |
| 2026-05-08 20:06 | 25.36960 | 122.30045 | 37077 ft | 515 kts | 44° |
| 2026-05-08 20:06 | 25.41601 | 122.36091 | 37075 ft | 515 kts | 43° |
| 2026-05-08 20:07 | 25.46212 | 122.42106 | 37077 ft | 516 kts | 44° |
| 2026-05-08 20:07 | 25.50854 | 122.48167 | 37069 ft | 516 kts | 43° |
| 2026-05-08 20:08 | 25.55507 | 122.54217 | 37074 ft | 516 kts | 43° |
| 2026-05-08 20:08 | 25.60171 | 122.60265 | 37075 ft | 517 kts | 43° |
| 2026-05-08 20:09 | 25.64841 | 122.66335 | 37078 ft | 517 kts | 43° |
| 2026-05-08 20:09 | 25.69484 | 122.72383 | 37075 ft | 518 kts | 43° |
| 2026-05-08 20:10 | 25.74150 | 122.78471 | 37079 ft | 518 kts | 43° |
| 2026-05-08 20:10 | 25.78833 | 122.84588 | 37081 ft | 519 kts | 43° |
| 2026-05-08 20:11 | 25.83512 | 122.90709 | 37079 ft | 520 kts | 43° |
| 2026-05-08 20:11 | 25.88158 | 122.96795 | 37078 ft | 520 kts | 43° |
| 2026-05-08 20:12 | 25.92831 | 123.02925 | 37079 ft | 520 kts | 43° |
| 2026-05-08 20:12 | 25.97511 | 123.09076 | 37084 ft | 521 kts | 43° |
| 2026-05-08 20:13 | 26.02191 | 123.15240 | 37092 ft | 521 kts | 43° |
| 2026-05-08 20:13 | 26.06875 | 123.21418 | 37078 ft | 522 kts | 43° |
| 2026-05-08 20:14 | 26.11530 | 123.27565 | 37080 ft | 522 kts | 43° |
| 2026-05-08 20:14 | 26.16210 | 123.33754 | 37082 ft | 522 kts | 43° |
| 2026-05-08 20:15 | 26.20893 | 123.39955 | 37085 ft | 523 kts | 43° |
| 2026-05-08 20:15 | 26.25580 | 123.46169 | 37089 ft | 523 kts | 43° |
| 2026-05-08 20:16 | 26.30263 | 123.52388 | 37094 ft | 524 kts | 43° |
| 2026-05-08 20:16 | 26.34915 | 123.58574 | 37092 ft | 524 kts | 43° |
| 2026-05-08 20:17 | 26.39601 | 123.64814 | 37097 ft | 524 kts | 43° |
| 2026-05-08 20:17 | 26.44286 | 123.71060 | 37094 ft | 525 kts | 43° |
| 2026-05-08 20:18 | 26.48987 | 123.77337 | 37096 ft | 525 kts | 43° |
| 2026-05-08 20:18 | 26.53679 | 123.83612 | 37098 ft | 526 kts | 43° |
| 2026-05-08 20:19 | 26.58338 | 123.89851 | 37100 ft | 526 kts | 43° |
| 2026-05-08 20:19 | 26.63024 | 123.96136 | 37106 ft | 526 kts | 43° |
| 2026-05-08 20:20 | 26.67712 | 124.02427 | 37104 ft | 527 kts | 43° |
| 2026-05-08 20:20 | 26.72413 | 124.08723 | 37105 ft | 527 kts | 43° |
| 2026-05-08 20:21 | 26.77110 | 124.15021 | 37102 ft | 527 kts | 43° |
| 2026-05-08 20:21 | 26.81782 | 124.21298 | 37106 ft | 528 kts | 43° |
| 2026-05-08 20:22 | 26.86478 | 124.27620 | 37107 ft | 528 kts | 43° |
| 2026-05-08 20:22 | 26.90418 | 124.32930 | 37109 ft | 528 kts | 43° |
| 2026-05-08 20:23 | 26.95878 | 124.40299 | 37116 ft | 529 kts | 43° |
| 2026-05-08 20:23 | 27.00595 | 124.46666 | 37117 ft | 529 kts | 43° |
| 2026-05-08 20:24 | 27.05276 | 124.52972 | 37127 ft | 530 kts | 43° |
| 2026-05-08 20:24 | 27.09994 | 124.59336 | 37115 ft | 530 kts | 43° |
| 2026-05-08 20:25 | 27.14709 | 124.65710 | 37118 ft | 531 kts | 43° |
| 2026-05-08 20:25 | 27.19433 | 124.72107 | 37117 ft | 531 kts | 43° |
| 2026-05-08 20:26 | 27.24150 | 124.78505 | 37121 ft | 532 kts | 43° |
| 2026-05-08 20:26 | 27.28080 | 124.83841 | 37124 ft | 532 kts | 43° |
| 2026-05-08 20:27 | 27.32803 | 124.90264 | 37121 ft | 532 kts | 43° |
| 2026-05-08 20:27 | 27.37522 | 124.96691 | 37122 ft | 532 kts | 43° |
| 2026-05-08 20:28 | 27.42219 | 125.03079 | 37129 ft | 532 kts | 43° |
| 2026-05-08 20:28 | 27.46974 | 125.09489 | 37125 ft | 532 kts | 43° |
| 2026-05-08 20:29 | 27.51704 | 125.15862 | 37122 ft | 532 kts | 43° |
| 2026-05-08 20:29 | 27.56448 | 125.22274 | 37126 ft | 532 kts | 43° |
| 2026-05-08 20:30 | 27.61184 | 125.28691 | 37125 ft | 532 kts | 43° |
| 2026-05-08 20:30 | 27.65925 | 125.35127 | 37129 ft | 533 kts | 43° |
| 2026-05-08 20:31 | 27.70656 | 125.41558 | 37122 ft | 533 kts | 43° |
| 2026-05-08 20:31 | 27.75401 | 125.48017 | 37123 ft | 533 kts | 43° |
| 2026-05-08 20:32 | 27.80125 | 125.54458 | 37124 ft | 533 kts | 43° |
| 2026-05-08 20:32 | 27.84825 | 125.60875 | 37126 ft | 533 kts | 43° |
| 2026-05-08 20:33 | 27.89553 | 125.67340 | 37125 ft | 533 kts | 43° |
| 2026-05-08 20:33 | 27.94281 | 125.73815 | 37127 ft | 533 kts | 43° |
| 2026-05-08 20:34 | 27.99006 | 125.80294 | 37130 ft | 534 kts | 43° |
| 2026-05-08 20:35 | 28.06090 | 125.90029 | 37128 ft | 534 kts | 43° |
| 2026-05-08 20:35 | 28.10814 | 125.96534 | 37131 ft | 535 kts | 43° |
| 2026-05-08 20:36 | 28.15517 | 126.03019 | 37122 ft | 535 kts | 44° |
| 2026-05-08 20:36 | 28.20247 | 126.09552 | 37127 ft | 536 kts | 44° |
| 2026-05-08 20:37 | 28.24981 | 126.16098 | 37128 ft | 537 kts | 44° |
| 2026-05-08 20:37 | 28.29686 | 126.22615 | 37128 ft | 538 kts | 44° |
| 2026-05-08 20:38 | 28.34431 | 126.29197 | 37126 ft | 539 kts | 44° |
| 2026-05-08 20:38 | 28.39185 | 126.35803 | 37128 ft | 540 kts | 44° |
| 2026-05-08 20:39 | 28.43947 | 126.42431 | 37123 ft | 540 kts | 44° |
| 2026-05-08 20:39 | 28.48702 | 126.49060 | 37124 ft | 541 kts | 44° |
| 2026-05-08 20:40 | 28.53425 | 126.55655 | 37112 ft | 542 kts | 44° |
| 2026-05-08 20:40 | 28.58183 | 126.62308 | 37113 ft | 542 kts | 44° |
| 2026-05-08 20:41 | 28.62941 | 126.68972 | 37128 ft | 542 kts | 44° |
| 2026-05-08 20:41 | 28.67692 | 126.75638 | 37125 ft | 542 kts | 44° |
| 2026-05-08 20:42 | 28.72408 | 126.82264 | 37113 ft | 542 kts | 44° |
| 2026-05-08 20:42 | 28.77144 | 126.88930 | 37123 ft | 541 kts | 44° |
| 2026-05-08 20:43 | 28.81881 | 126.95606 | 37116 ft | 541 kts | 44° |
| 2026-05-08 20:43 | 28.86619 | 127.02295 | 37119 ft | 541 kts | 44° |
| 2026-05-08 20:44 | 28.91346 | 127.08980 | 37118 ft | 541 kts | 44° |
| 2026-05-08 20:44 | 28.96073 | 127.15674 | 37117 ft | 541 kts | 44° |
| 2026-05-08 20:45 | 29.00799 | 127.22380 | 37122 ft | 542 kts | 44° |
| 2026-05-08 20:45 | 29.05523 | 127.29092 | 37117 ft | 542 kts | 44° |
| 2026-05-08 20:46 | 29.10249 | 127.35818 | 37116 ft | 542 kts | 44° |
| 2026-05-08 20:46 | 29.14945 | 127.42513 | 37118 ft | 543 kts | 44° |
| 2026-05-08 20:47 | 29.19685 | 127.49281 | 37116 ft | 543 kts | 44° |
| 2026-05-08 20:47 | 29.24409 | 127.56037 | 37121 ft | 544 kts | 44° |
| 2026-05-08 20:48 | 29.29136 | 127.62810 | 37123 ft | 544 kts | 44° |
| 2026-05-08 20:48 | 29.33859 | 127.69587 | 37124 ft | 545 kts | 45° |
| 2026-05-08 20:49 | 29.38583 | 127.76379 | 37113 ft | 545 kts | 45° |
| 2026-05-08 20:49 | 29.43282 | 127.83145 | 37122 ft | 545 kts | 45° |
| 2026-05-08 20:50 | 29.48009 | 127.89963 | 37120 ft | 546 kts | 45° |
| 2026-05-08 20:50 | 29.52734 | 127.96789 | 37123 ft | 546 kts | 45° |
| 2026-05-08 20:51 | 29.57462 | 128.03620 | 37116 ft | 546 kts | 45° |
| 2026-05-08 20:51 | 29.62191 | 128.10458 | 37118 ft | 546 kts | 45° |
| 2026-05-08 20:52 | 29.66912 | 128.17297 | 37120 ft | 546 kts | 45° |
| 2026-05-08 20:52 | 29.71608 | 128.24116 | 37120 ft | 546 kts | 45° |
| 2026-05-08 20:53 | 29.76328 | 128.30981 | 37118 ft | 547 kts | 45° |
| 2026-05-08 20:53 | 29.81049 | 128.37859 | 37119 ft | 547 kts | 45° |
| 2026-05-08 20:54 | 29.85759 | 128.44733 | 37120 ft | 547 kts | 45° |
| 2026-05-08 20:54 | 29.90476 | 128.51628 | 37123 ft | 547 kts | 45° |
| 2026-05-08 20:55 | 29.95185 | 128.58523 | 37119 ft | 547 kts | 45° |
| 2026-05-08 20:55 | 29.99868 | 128.65392 | 37118 ft | 547 kts | 45° |
| 2026-05-08 20:56 | 30.04578 | 128.72313 | 37119 ft | 548 kts | 45° |
| 2026-05-08 20:56 | 30.09287 | 128.79245 | 37124 ft | 548 kts | 45° |
| 2026-05-08 20:57 | 30.13991 | 128.86181 | 37121 ft | 548 kts | 45° |
| 2026-05-08 20:57 | 30.18691 | 128.93125 | 37122 ft | 549 kts | 45° |
| 2026-05-08 20:58 | 30.23398 | 129.00088 | 37124 ft | 549 kts | 45° |
| 2026-05-08 20:58 | 30.28100 | 129.07054 | 37124 ft | 550 kts | 45° |
| 2026-05-08 20:59 | 30.32806 | 129.14036 | 37127 ft | 550 kts | 45° |
| 2026-05-08 20:59 | 30.37478 | 129.20984 | 37110 ft | 550 kts | 45° |
| 2026-05-08 21:00 | 30.42173 | 129.27977 | 37116 ft | 549 kts | 45° |
| 2026-05-08 21:00 | 30.46865 | 129.34979 | 37114 ft | 549 kts | 45° |
| 2026-05-08 21:01 | 30.51556 | 129.41993 | 37108 ft | 549 kts | 45° |
| 2026-05-08 21:01 | 30.56212 | 129.48965 | 37111 ft | 549 kts | 45° |
| 2026-05-08 21:02 | 30.60916 | 129.56022 | 37113 ft | 549 kts | 46° |
| 2026-05-08 21:02 | 30.65554 | 129.62992 | 37114 ft | 549 kts | 46° |
| 2026-05-08 21:03 | 30.70232 | 129.70035 | 37110 ft | 549 kts | 46° |
| 2026-05-08 21:03 | 30.74899 | 129.77076 | 37109 ft | 550 kts | 46° |
| 2026-05-08 21:04 | 30.79568 | 129.84131 | 37113 ft | 551 kts | 46° |
| 2026-05-08 21:04 | 30.84579 | 129.90774 | 37108 ft | 540 kts | 36° |
| 2026-05-08 21:05 | 30.90312 | 129.96276 | 37108 ft | 528 kts | 25° |
| 2026-05-08 21:05 | 30.96441 | 130.00991 | 37118 ft | 527 kts | 24° |
| 2026-05-08 21:06 | 31.02556 | 130.05639 | 37118 ft | 529 kts | 24° |
| 2026-05-08 21:06 | 31.08725 | 130.10403 | 37106 ft | 531 kts | 24° |
| 2026-05-08 21:07 | 31.14870 | 130.15196 | 37109 ft | 532 kts | 24° |
| 2026-05-08 21:07 | 31.21018 | 130.20006 | 37110 ft | 532 kts | 24° |
| 2026-05-08 21:08 | 31.27168 | 130.24819 | 37124 ft | 532 kts | 24° |
| 2026-05-08 21:08 | 31.33320 | 130.29637 | 37125 ft | 532 kts | 24° |
| 2026-05-08 21:09 | 31.39430 | 130.34431 | 37124 ft | 532 kts | 24° |
| 2026-05-08 21:09 | 31.45581 | 130.39266 | 37111 ft | 531 kts | 24° |
| 2026-05-08 21:10 | 31.51712 | 130.44093 | 37114 ft | 530 kts | 24° |
| 2026-05-08 21:10 | 31.57834 | 130.48919 | 37118 ft | 530 kts | 24° |
| 2026-05-08 21:11 | 31.62922 | 130.52937 | 37107 ft | 530 kts | 24° |
| 2026-05-08 21:11 | 31.70022 | 130.58552 | 37127 ft | 529 kts | 24° |
| 2026-05-08 21:12 | 31.75205 | 130.62431 | 37119 ft | 525 kts | 21° |
| 2026-05-08 21:12 | 31.81434 | 130.66865 | 37113 ft | 526 kts | 21° |
| 2026-05-08 21:13 | 31.87698 | 130.71358 | 37108 ft | 528 kts | 21° |
| 2026-05-08 21:13 | 31.93960 | 130.75915 | 37121 ft | 529 kts | 21° |
| 2026-05-08 21:14 | 32.00227 | 130.80496 | 37125 ft | 530 kts | 21° |
| 2026-05-08 21:14 | 32.06495 | 130.85082 | 37134 ft | 531 kts | 21° |
| 2026-05-08 21:15 | 32.12772 | 130.89677 | 37133 ft | 531 kts | 21° |
| 2026-05-08 21:15 | 32.19026 | 130.94218 | 37141 ft | 530 kts | 21° |
| 2026-05-08 21:16 | 32.25334 | 130.98772 | 37151 ft | 531 kts | 21° |
| 2026-05-08 21:16 | 32.31632 | 131.03337 | 37146 ft | 531 kts | 21° |
| 2026-05-08 21:17 | 32.37901 | 131.07896 | 37156 ft | 532 kts | 21° |
| 2026-05-08 21:17 | 32.44218 | 131.12512 | 37145 ft | 533 kts | 21° |
| 2026-05-08 21:18 | 32.50497 | 131.17179 | 37149 ft | 532 kts | 21° |
| 2026-05-08 21:18 | 32.56769 | 131.21846 | 37161 ft | 531 kts | 21° |
| 2026-05-08 21:19 | 32.62995 | 131.26481 | 37136 ft | 531 kts | 21° |
| 2026-05-08 21:19 | 32.69236 | 131.31164 | 37143 ft | 527 kts | 21° |
| 2026-05-08 21:20 | 32.75442 | 131.35822 | 37143 ft | 526 kts | 21° |
| 2026-05-08 21:20 | 32.81622 | 131.40465 | 37183 ft | 527 kts | 21° |
| 2026-05-08 21:21 | 32.87837 | 131.45054 | 37153 ft | 530 kts | 20° |
| 2026-05-08 21:21 | 32.94173 | 131.49701 | 37154 ft | 533 kts | 21° |
| 2026-05-08 21:22 | 33.00446 | 131.54323 | 37148 ft | 535 kts | 21° |
| 2026-05-08 21:22 | 33.06817 | 131.59035 | 37150 ft | 536 kts | 21° |
| 2026-05-08 21:23 | 33.13127 | 131.63713 | 37149 ft | 536 kts | 21° |
| 2026-05-08 21:23 | 33.19459 | 131.68410 | 37147 ft | 535 kts | 21° |
| 2026-05-08 21:24 | 33.25919 | 131.72469 | 37135 ft | 520 kts | 12° |
| 2026-05-08 21:24 | 33.32577 | 131.75820 | 37134 ft | 518 kts | 10° |
| 2026-05-08 21:25 | 33.39233 | 131.79147 | 37145 ft | 519 kts | 11° |
| 2026-05-08 21:25 | 33.45889 | 131.82547 | 37147 ft | 520 kts | 11° |
| 2026-05-08 21:26 | 33.52549 | 131.85985 | 37142 ft | 521 kts | 11° |
| 2026-05-08 21:26 | 33.59212 | 131.89431 | 37135 ft | 522 kts | 12° |
| 2026-05-08 21:27 | 33.65838 | 131.92858 | 37139 ft | 522 kts | 12° |
| 2026-05-08 21:27 | 33.72520 | 131.96319 | 37145 ft | 522 kts | 12° |
| 2026-05-08 21:28 | 33.79195 | 131.99781 | 37150 ft | 522 kts | 12° |
| 2026-05-08 21:28 | 33.85863 | 132.03243 | 37155 ft | 521 kts | 12° |
| 2026-05-08 21:29 | 33.92488 | 132.06687 | 37160 ft | 521 kts | 12° |
| 2026-05-08 21:29 | 33.99158 | 132.10153 | 37158 ft | 521 kts | 12° |
| 2026-05-08 21:30 | 34.05768 | 132.13798 | 37149 ft | 530 kts | 18° |
| 2026-05-08 21:30 | 34.11998 | 132.18801 | 37135 ft | 548 kts | 31° |
| 2026-05-08 21:31 | 34.17751 | 132.24917 | 37160 ft | 551 kts | 33° |
| 2026-05-08 21:31 | 34.23411 | 132.31049 | 37159 ft | 549 kts | 32° |
| 2026-05-08 21:32 | 34.29153 | 132.37132 | 37166 ft | 548 kts | 32° |
| 2026-05-08 21:32 | 34.34906 | 132.43212 | 37160 ft | 548 kts | 32° |
| 2026-05-08 21:33 | 34.40653 | 132.49297 | 37165 ft | 548 kts | 32° |
| 2026-05-08 21:33 | 34.46262 | 132.55247 | 37150 ft | 548 kts | 32° |
| 2026-05-08 21:34 | 34.52057 | 132.61407 | 37147 ft | 548 kts | 32° |
| 2026-05-08 21:34 | 34.57783 | 132.67507 | 37152 ft | 548 kts | 32° |
| 2026-05-08 21:35 | 34.63521 | 132.73628 | 37148 ft | 549 kts | 32° |
| 2026-05-08 21:35 | 34.69235 | 132.79736 | 37144 ft | 551 kts | 32° |
| 2026-05-08 21:36 | 34.75003 | 132.85914 | 37170 ft | 557 kts | 32° |
| 2026-05-08 21:36 | 34.80874 | 132.92211 | 37168 ft | 567 kts | 32° |
| 2026-05-08 21:37 | 34.86837 | 132.98631 | 37168 ft | 575 kts | 33° |
| 2026-05-08 21:37 | 34.92865 | 133.05128 | 37168 ft | 581 kts | 33° |
| 2026-05-08 21:38 | 34.98954 | 133.11700 | 37165 ft | 586 kts | 33° |
| 2026-05-08 21:38 | 35.05034 | 133.18284 | 37175 ft | 590 kts | 33° |
| 2026-05-08 21:39 | 35.11187 | 133.24961 | 37156 ft | 592 kts | 33° |
| 2026-05-08 21:39 | 35.17350 | 133.31667 | 37145 ft | 592 kts | 33° |
| 2026-05-08 21:40 | 35.23499 | 133.38375 | 37156 ft | 592 kts | 33° |
| 2026-05-08 21:40 | 35.29601 | 133.45036 | 37133 ft | 591 kts | 33° |
| 2026-05-08 21:41 | 35.38786 | 133.55091 | 37145 ft | 591 kts | 33° |
| 2026-05-08 21:41 | 35.44914 | 133.61819 | 37139 ft | 591 kts | 33° |
| 2026-05-08 21:42 | 35.51034 | 133.68552 | 37151 ft | 590 kts | 34° |
| 2026-05-08 21:42 | 35.57156 | 133.75300 | 37141 ft | 591 kts | 34° |
| 2026-05-08 21:43 | 35.63269 | 133.82054 | 37136 ft | 591 kts | 34° |
| 2026-05-08 21:43 | 35.69383 | 133.88823 | 37137 ft | 592 kts | 34° |
| 2026-05-08 21:44 | 35.75475 | 133.95583 | 37134 ft | 592 kts | 34° |
| 2026-05-08 21:44 | 35.81638 | 134.02436 | 37136 ft | 593 kts | 34° |
| 2026-05-08 21:45 | 35.87762 | 134.09261 | 37134 ft | 594 kts | 34° |
| 2026-05-08 21:45 | 35.93842 | 134.16053 | 37131 ft | 594 kts | 34° |
| 2026-05-08 21:46 | 35.99973 | 134.22915 | 37114 ft | 594 kts | 34° |
| 2026-05-08 21:46 | 36.06094 | 134.29783 | 37120 ft | 594 kts | 35° |
| 2026-05-08 21:47 | 36.12205 | 134.36654 | 37124 ft | 594 kts | 35° |
| 2026-05-08 21:47 | 36.18309 | 134.43532 | 37120 ft | 593 kts | 35° |
| 2026-05-08 21:48 | 36.24106 | 134.50873 | 37116 ft | 601 kts | 44° |
| 2026-05-08 21:48 | 36.28956 | 134.59304 | 37110 ft | 607 kts | 54° |
| 2026-05-08 21:49 | 36.33300 | 134.68317 | 37105 ft | 607 kts | 55° |
| 2026-05-08 21:49 | 36.37611 | 134.77319 | 37101 ft | 606 kts | 55° |
| 2026-05-08 21:50 | 36.41964 | 134.86259 | 37099 ft | 606 kts | 54° |
| 2026-05-08 21:50 | 36.46358 | 134.95221 | 37096 ft | 606 kts | 54° |
| 2026-05-08 21:51 | 36.50732 | 135.04169 | 37103 ft | 606 kts | 55° |
| 2026-05-08 21:51 | 36.55071 | 135.13090 | 37097 ft | 606 kts | 55° |
| 2026-05-08 21:52 | 36.59426 | 135.22074 | 37096 ft | 605 kts | 55° |
| 2026-05-08 21:52 | 36.63769 | 135.31059 | 37088 ft | 604 kts | 55° |
| 2026-05-08 21:53 | 36.68098 | 135.40034 | 37089 ft | 604 kts | 55° |
| 2026-05-08 21:53 | 36.72383 | 135.48942 | 37084 ft | 603 kts | 55° |
| 2026-05-08 21:54 | 36.76687 | 135.57913 | 37086 ft | 603 kts | 56° |
| 2026-05-08 21:54 | 36.80988 | 135.66903 | 37081 ft | 603 kts | 56° |
| 2026-05-08 21:55 | 36.85283 | 135.75904 | 37088 ft | 603 kts | 56° |
| 2026-05-08 21:56 | 36.91722 | 135.89445 | 37082 ft | 603 kts | 56° |
| 2026-05-08 21:56 | 36.95976 | 135.98423 | 37081 ft | 604 kts | 56° |
| 2026-05-08 21:57 | 37.00246 | 136.07456 | 37080 ft | 604 kts | 56° |
| 2026-05-08 21:57 | 37.04525 | 136.16533 | 37074 ft | 604 kts | 56° |
| 2026-05-08 21:58 | 37.08096 | 136.24130 | 37067 ft | 605 kts | 56° |
| 2026-05-08 21:58 | 37.12329 | 136.33159 | 37063 ft | 605 kts | 56° |
| 2026-05-08 21:59 | 37.16588 | 136.42268 | 37067 ft | 605 kts | 56° |
| 2026-05-08 21:59 | 37.20839 | 136.51384 | 37068 ft | 605 kts | 57° |
| 2026-05-08 22:00 | 37.25081 | 136.60509 | 37054 ft | 605 kts | 57° |
| 2026-05-08 22:00 | 37.29320 | 136.69649 | 37041 ft | 605 kts | 57° |
| 2026-05-08 22:01 | 37.33551 | 136.78802 | 37036 ft | 605 kts | 57° |
| 2026-05-08 22:01 | 37.37775 | 136.87962 | 37019 ft | 605 kts | 57° |
| 2026-05-08 22:02 | 37.41960 | 136.97063 | 37026 ft | 605 kts | 57° |
| 2026-05-08 22:02 | 37.46163 | 137.06230 | 37027 ft | 604 kts | 58° |
| 2026-05-08 22:03 | 37.50360 | 137.15404 | 37035 ft | 604 kts | 58° |
| 2026-05-08 22:03 | 37.54556 | 137.24610 | 37031 ft | 605 kts | 58° |
| 2026-05-08 22:04 | 37.58744 | 137.33823 | 37025 ft | 605 kts | 58° |
| 2026-05-08 22:04 | 37.62915 | 137.43021 | 37025 ft | 605 kts | 58° |
| 2026-05-08 22:05 | 37.67082 | 137.52240 | 37008 ft | 605 kts | 58° |
| 2026-05-08 22:05 | 37.71250 | 137.61486 | 37012 ft | 605 kts | 59° |
| 2026-05-08 22:06 | 37.75380 | 137.70673 | 36992 ft | 605 kts | 59° |
| 2026-05-08 22:06 | 37.79528 | 137.79927 | 37000 ft | 604 kts | 59° |
| 2026-05-08 22:07 | 37.83656 | 137.89164 | 36983 ft | 604 kts | 59° |
| 2026-05-08 22:07 | 37.87785 | 137.98429 | 36979 ft | 603 kts | 59° |
| 2026-05-08 22:08 | 37.91905 | 138.07701 | 36969 ft | 603 kts | 60° |
| 2026-05-08 22:08 | 37.96005 | 138.16954 | 36974 ft | 602 kts | 60° |
| 2026-05-08 22:09 | 38.00076 | 138.26171 | 36966 ft | 602 kts | 60° |
| 2026-05-08 22:09 | 38.04321 | 138.35327 | 36958 ft | 601 kts | 53° |
| 2026-05-08 22:10 | 38.09859 | 138.43200 | 36962 ft | 595 kts | 39° |
| 2026-05-08 22:10 | 38.16452 | 138.49413 | 36961 ft | 588 kts | 27° |
| 2026-05-08 22:11 | 38.23393 | 138.54925 | 36942 ft | 588 kts | 27° |
| 2026-05-08 22:11 | 38.30324 | 138.60465 | 36940 ft | 588 kts | 27° |
| 2026-05-08 22:12 | 38.37217 | 138.66110 | 36929 ft | 589 kts | 28° |
| 2026-05-08 22:12 | 38.44094 | 138.71808 | 36927 ft | 590 kts | 28° |
| 2026-05-08 22:13 | 38.50933 | 138.77485 | 36916 ft | 590 kts | 28° |
| 2026-05-08 22:13 | 38.57822 | 138.83202 | 36921 ft | 590 kts | 28° |
| 2026-05-08 22:14 | 38.64698 | 138.88918 | 36905 ft | 590 kts | 28° |
| 2026-05-08 22:14 | 38.71585 | 138.94656 | 36899 ft | 590 kts | 28° |
| 2026-05-08 22:15 | 38.78458 | 139.00397 | 36886 ft | 589 kts | 28° |
| 2026-05-08 22:15 | 38.85324 | 139.06146 | 36887 ft | 589 kts | 29° |
| 2026-05-08 22:16 | 38.92181 | 139.11902 | 36874 ft | 589 kts | 29° |
| 2026-05-08 22:16 | 38.99046 | 139.17677 | 36876 ft | 589 kts | 29° |
| 2026-05-08 22:17 | 39.05866 | 139.23427 | 36865 ft | 589 kts | 29° |
| 2026-05-08 22:17 | 39.12714 | 139.29216 | 36864 ft | 589 kts | 29° |
| 2026-05-08 22:18 | 39.19567 | 139.35021 | 36851 ft | 589 kts | 29° |
| 2026-05-08 22:18 | 39.26417 | 139.40840 | 36851 ft | 588 kts | 29° |
| 2026-05-08 22:19 | 39.33251 | 139.46657 | 36838 ft | 588 kts | 29° |
| 2026-05-08 22:19 | 39.40085 | 139.52488 | 36842 ft | 588 kts | 30° |
| 2026-05-08 22:20 | 39.46916 | 139.58331 | 36830 ft | 588 kts | 30° |
| 2026-05-08 22:20 | 39.53693 | 139.64141 | 36828 ft | 588 kts | 30° |
| 2026-05-08 22:21 | 39.60517 | 139.70006 | 36811 ft | 588 kts | 30° |
| 2026-05-08 22:21 | 39.67328 | 139.75874 | 36811 ft | 588 kts | 30° |
| 2026-05-08 22:22 | 39.74135 | 139.81754 | 36795 ft | 588 kts | 30° |
| 2026-05-08 22:22 | 39.80944 | 139.87648 | 36800 ft | 588 kts | 30° |
| 2026-05-08 22:23 | 39.87746 | 139.93590 | 36789 ft | 588 kts | 31° |
| 2026-05-08 22:23 | 39.94515 | 139.99556 | 36788 ft | 588 kts | 31° |
| 2026-05-08 22:24 | 40.01296 | 140.05545 | 36776 ft | 588 kts | 31° |
| 2026-05-08 22:24 | 40.08075 | 140.11538 | 36776 ft | 588 kts | 31° |
| 2026-05-08 22:25 | 40.14800 | 140.17496 | 36757 ft | 588 kts | 31° |
| 2026-05-08 22:25 | 40.21576 | 140.23514 | 36753 ft | 587 kts | 31° |
| 2026-05-08 22:26 | 40.28321 | 140.29519 | 36741 ft | 587 kts | 31° |
| 2026-05-08 22:26 | 40.35084 | 140.35555 | 36731 ft | 587 kts | 31° |
| 2026-05-08 22:27 | 40.41827 | 140.41591 | 36723 ft | 587 kts | 31° |
| 2026-05-08 22:27 | 40.48573 | 140.47642 | 36696 ft | 587 kts | 31° |
| 2026-05-08 22:28 | 40.55326 | 140.53715 | 36659 ft | 587 kts | 32° |
| 2026-05-08 22:28 | 40.62047 | 140.59775 | 36649 ft | 586 kts | 32° |
| 2026-05-08 22:29 | 40.68747 | 140.65829 | 36644 ft | 587 kts | 32° |
| 2026-05-08 22:29 | 40.75744 | 140.71308 | 36640 ft | 583 kts | 22° |
| 2026-05-08 22:30 | 40.83228 | 140.75240 | 36950 ft | 580 kts | 14° |
| 2026-05-08 22:30 | 40.87048 | 140.77000 | 36807 ft | 582 kts | 15° |
| 2026-05-08 22:30 | 40.90858 | 140.78831 | 36739 ft | 582 kts | 15° |
| 2026-05-08 22:31 | 40.98436 | 140.82592 | 36657 ft | 580 kts | 16° |
| 2026-05-08 22:31 | 41.05955 | 140.86352 | 36645 ft | 576 kts | 16° |
| 2026-05-08 22:32 | 41.13396 | 140.90059 | 36638 ft | 573 kts | 16° |
| 2026-05-08 22:32 | 41.20857 | 140.93776 | 36629 ft | 572 kts | 16° |
| 2026-05-08 22:33 | 41.28300 | 140.97496 | 36618 ft | 572 kts | 16° |
| 2026-05-08 22:33 | 41.35758 | 141.01192 | 36615 ft | 572 kts | 15° |
| 2026-05-08 22:34 | 41.43200 | 141.05002 | 36619 ft | 575 kts | 21° |
| 2026-05-08 22:34 | 41.50229 | 141.10169 | 36277 ft | 575 kts | 32° |
| 2026-05-08 22:34 | 41.53432 | 141.13235 | 35691 ft | 571 kts | 34° |
| 2026-05-08 22:35 | 41.56597 | 141.16409 | 35019 ft | 568 kts | 35° |
| 2026-05-08 22:35 | 41.59734 | 141.19586 | 34360 ft | 564 kts | 34° |
| 2026-05-08 22:35 | 41.62762 | 141.22629 | 33724 ft | 546 kts | 34° |
| 2026-05-08 22:35 | 41.65763 | 141.25610 | 32721 ft | 530 kts | 34° |
| 2026-05-08 22:36 | 41.68709 | 141.28504 | 31584 ft | 518 kts | 33° |
| 2026-05-08 22:36 | 41.71592 | 141.31321 | 30488 ft | 508 kts | 33° |
| 2026-05-08 22:36 | 41.74421 | 141.34087 | 29527 ft | 495 kts | 33° |
| 2026-05-08 22:36 | 41.77122 | 141.36741 | 29075 ft | 468 kts | 33° |
| 2026-05-08 22:37 | 41.79730 | 141.39307 | 28613 ft | 464 kts | 33° |
| 2026-05-08 22:37 | 41.82333 | 141.41786 | 28136 ft | 463 kts | 28° |
| 2026-05-08 22:37 | 41.85152 | 141.43840 | 27664 ft | 462 kts | 20° |
| 2026-05-08 22:37 | 41.88129 | 141.45451 | 27184 ft | 456 kts | 14° |
| 2026-05-08 22:38 | 41.91162 | 141.46548 | 26703 ft | 447 kts | 7° |
| 2026-05-08 22:38 | 41.94196 | 141.47352 | 26243 ft | 441 kts | 6° |
| 2026-05-08 22:38 | 41.97203 | 141.48138 | 25792 ft | 437 kts | 6° |
| 2026-05-08 22:38 | 42.00135 | 141.48926 | 25338 ft | 432 kts | 7° |
| 2026-05-08 22:39 | 42.03105 | 141.49746 | 24879 ft | 427 kts | 7° |
| 2026-05-08 22:39 | 42.05998 | 141.50557 | 24439 ft | 423 kts | 8° |
| 2026-05-08 22:39 | 42.08861 | 141.51363 | 24000 ft | 418 kts | 8° |
| 2026-05-08 22:39 | 42.11646 | 141.52170 | 23565 ft | 412 kts | 11° |
| 2026-05-08 22:40 | 42.14289 | 141.53643 | 23118 ft | 415 kts | 30° |
| 2026-05-08 22:40 | 42.16574 | 141.55961 | 22659 ft | 407 kts | 34° |
| 2026-05-08 22:40 | 42.18799 | 141.58296 | 22191 ft | 403 kts | 34° |
| 2026-05-08 22:40 | 42.21008 | 141.60583 | 21771 ft | 398 kts | 34° |
| 2026-05-08 22:41 | 42.23203 | 141.62826 | 21357 ft | 393 kts | 34° |
| 2026-05-08 22:41 | 42.25382 | 141.65034 | 20946 ft | 389 kts | 33° |
| 2026-05-08 22:41 | 42.27539 | 141.67211 | 20542 ft | 386 kts | 33° |
| 2026-05-08 22:41 | 42.29681 | 141.69371 | 20136 ft | 382 kts | 33° |
| 2026-05-08 22:42 | 42.31808 | 141.71515 | 19722 ft | 379 kts | 33° |
| 2026-05-08 22:42 | 42.33921 | 141.73648 | 19276 ft | 378 kts | 33° |
| 2026-05-08 22:42 | 42.36031 | 141.75779 | 18835 ft | 380 kts | 33° |
| 2026-05-08 22:42 | 42.38159 | 141.77929 | 18427 ft | 383 kts | 34° |
| 2026-05-08 22:43 | 42.40291 | 141.80088 | 18070 ft | 383 kts | 34° |
| 2026-05-08 22:43 | 42.42393 | 141.82220 | 17778 ft | 381 kts | 34° |
| 2026-05-08 22:43 | 42.44509 | 141.84369 | 17442 ft | 378 kts | 34° |
| 2026-05-08 22:43 | 42.46608 | 141.86504 | 17006 ft | 376 kts | 34° |
| 2026-05-08 22:44 | 42.48697 | 141.88628 | 16556 ft | 373 kts | 34° |
| 2026-05-08 22:44 | 42.50068 | 141.90024 | 16266 ft | 371 kts | 34° |
| 2026-05-08 22:44 | 42.52127 | 141.92120 | 15822 ft | 368 kts | 34° |
| 2026-05-08 22:44 | 42.54203 | 141.94075 | 15366 ft | 358 kts | 24° |
| 2026-05-08 22:45 | 42.56541 | 141.95036 | 14977 ft | 347 kts | 3° |
| 2026-05-08 22:45 | 42.58916 | 141.94952 | 14554 ft | 340 kts | 348° |
| 2026-05-08 22:45 | 42.61986 | 141.94263 | 14034 ft | 336 kts | 347° |
| 2026-05-08 22:45 | 42.63544 | 141.93894 | 13760 ft | 336 kts | 347° |
| 2026-05-08 22:46 | 42.65846 | 141.93355 | 13347 ft | 335 kts | 347° |
| 2026-05-08 22:46 | 42.68139 | 141.92832 | 12892 ft | 333 kts | 348° |
| 2026-05-08 22:46 | 42.70427 | 141.92321 | 12451 ft | 333 kts | 348° |
| 2026-05-08 22:46 | 42.72718 | 141.91818 | 12063 ft | 334 kts | 348° |
| 2026-05-08 22:47 | 42.75013 | 141.91316 | 12008 ft | 334 kts | 348° |
| 2026-05-08 22:47 | 42.77283 | 141.90822 | 11946 ft | 327 kts | 348° |
| 2026-05-08 22:47 | 42.79516 | 141.90334 | 11452 ft | 329 kts | 348° |
| 2026-05-08 22:47 | 42.81764 | 141.89842 | 11206 ft | 322 kts | 348° |
| 2026-05-08 22:48 | 42.83926 | 141.89371 | 11077 ft | 302 kts | 348° |
| 2026-05-08 22:48 | 42.85935 | 141.88934 | 10643 ft | 286 kts | 348° |
| 2026-05-08 22:48 | 42.87878 | 141.88509 | 9996 ft | 280 kts | 348° |
| 2026-05-08 22:48 | 42.89794 | 141.88087 | 9223 ft | 279 kts | 348° |
| 2026-05-08 22:49 | 42.91698 | 141.87667 | 8466 ft | 276 kts | 348° |
| 2026-05-08 22:49 | 42.95470 | 141.86842 | 7291 ft | 275 kts | 348° |
| 2026-05-08 22:49 | 42.97351 | 141.86426 | 6892 ft | 278 kts | 348° |
| 2026-05-08 22:50 | 42.99250 | 141.86007 | 6592 ft | 276 kts | 348° |
| 2026-05-08 22:50 | 43.01148 | 141.85588 | 6284 ft | 275 kts | 348° |
| 2026-05-08 22:50 | 43.03041 | 141.85174 | 5995 ft | 274 kts | 347° |
| 2026-05-08 22:50 | 43.04895 | 141.84707 | 5673 ft | 266 kts | 339° |
| 2026-05-08 22:51 | 43.06418 | 141.83435 | 5388 ft | 254 kts | 309° |
| 2026-05-08 22:51 | 43.07270 | 141.81393 | 5141 ft | 245 kts | 282° |
| 2026-05-08 22:51 | 43.07407 | 141.79112 | 4888 ft | 239 kts | 263° |
| 2026-05-08 22:51 | 43.07023 | 141.76921 | 4619 ft | 235 kts | 243° |
| 2026-05-08 22:52 | 43.06083 | 141.75126 | 4391 ft | 232 kts | 230° |
| 2026-05-08 22:52 | 43.05031 | 141.73412 | 4129 ft | 239 kts | 231° |
| 2026-05-08 22:52 | 43.03959 | 141.71636 | 3900 ft | 244 kts | 231° |
| 2026-05-08 22:52 | 43.02874 | 141.69831 | 3616 ft | 248 kts | 231° |
| 2026-05-08 22:53 | 43.01797 | 141.68037 | 3352 ft | 246 kts | 230° |
| 2026-05-08 22:53 | 43.00677 | 141.66307 | 3084 ft | 239 kts | 219° |
| 2026-05-08 22:53 | 42.99177 | 141.65417 | 2852 ft | 237 kts | 189° |
| 2026-05-08 22:53 | 42.97544 | 141.65464 | 2645 ft | 234 kts | 175° |
| 2026-05-08 22:54 | 42.95937 | 141.65716 | 2425 ft | 230 kts | 175° |
| 2026-05-08 22:54 | 42.94405 | 141.65957 | 2148 ft | 214 kts | 175° |
| 2026-05-08 22:54 | 42.93024 | 141.66231 | 2096 ft | 190 kts | 171° |
| 2026-05-08 22:54 | 42.91767 | 141.66508 | 2058 ft | 175 kts | 173° |
| 2026-05-08 22:55 | 42.90576 | 141.66731 | 1995 ft | 171 kts | 174° |
| 2026-05-08 22:55 | 42.89410 | 141.66940 | 2017 ft | 168 kts | 174° |
| 2026-05-08 22:55 | 42.88237 | 141.67148 | 2024 ft | 171 kts | 174° |
| 2026-05-08 22:55 | 42.87081 | 141.67355 | 1795 ft | 160 kts | 173° |
| 2026-05-08 22:56 | 42.86032 | 141.67541 | 1589 ft | 143 kts | 173° |
| 2026-05-08 22:56 | 42.85121 | 141.67702 | 1418 ft | 122 kts | 174° |
| 2026-05-08 22:56 | 42.84271 | 141.67851 | 1246 ft | 126 kts | 173° |
| 2026-05-08 22:56 | 42.83381 | 141.68009 | 1063 ft | 130 kts | 173° |
| 2026-05-08 22:57 | 42.82476 | 141.68173 | 839 ft | 131 kts | 173° |
| 2026-05-08 22:57 | 42.81596 | 141.68335 | 666 ft | 125 kts | 173° |
| 2026-05-08 22:57 | 42.80718 | 141.68484 | 457 ft | 127 kts | 173° |
| 2026-05-08 22:57 | 42.79844 | 141.68640 | 311 ft | 128 kts | 173° |
| 2026-05-08 22:58 | 42.78963 | 141.68788 | 149 ft | 124 kts | 173° |
| 2026-05-08 22:58 | 42.78163 | 141.68932 | 94 ft | 106 kts | 173° |
| 2026-05-08 22:58 | 42.77575 | 141.69032 | 89 ft | 63 kts | 172° |
| 2026-05-08 22:58 | 42.77239 | 141.69045 | 88 ft | 40 kts | 189° |